Time;durP1;ratioP1;P1;durP2;ratioP2;P2;SDS_P1;SDS_P2;PMS_P1;PMS_P2;Temp;Humidity;BMP_temperature;BMP_pressure;BME280_temperature;BME280_humidity;BME280_pressure;Samples;Min_cycle;Max_cycle;Signal;HPM_P1;HPM_P2
2021/01/12 00:02:11;;;;;;;16.95;6.35;;;-0.90;99.90;;;;;;1936778;73;21098;-70
2021/01/12 00:04:37;;;;;;;12.47;6.72;;;-0.90;99.90;;;;;;1918535;74;21060;-69
2021/01/12 00:07:03;;;;;;;13.45;6.62;;;-0.90;99.90;;;;;;1928946;73;21067;-69
2021/01/12 00:09:30;;;;;;;13.08;6.47;;;-0.80;99.90;;;;;;1946977;73;21070;-70
2021/01/12 00:11:56;;;;;;;15.55;7.95;;;-0.80;99.90;;;;;;1941186;73;21088;-70
2021/01/12 00:14:31;;;;;;;9.63;5.62;;;-0.80;99.90;;;;;;1939449;73;21132;-70
2021/01/12 00:16:57;;;;;;;11.88;6.53;;;-0.70;99.90;;;;;;1919767;75;21070;-70
2021/01/12 00:19:23;;;;;;;13.40;7.28;;;-0.70;99.90;;;;;;1921964;74;21299;-70
2021/01/12 00:21:49;;;;;;;12.45;6.42;;;-0.60;99.90;;;;;;1906531;74;21079;-70
2021/01/12 00:24:15;;;;;;;18.32;6.67;;;-0.70;99.90;;;;;;1906842;74;21122;-70
2021/01/12 00:26:41;;;;;;;11.18;6.12;;;-0.70;99.90;;;;;;1941846;74;21641;-70
2021/01/12 00:29:07;;;;;;;11.05;6.12;;;-0.70;99.90;;;;;;1942676;73;21459;-70
2021/01/12 00:31:34;;;;;;;13.20;6.53;;;-0.70;99.90;;;;;;1924024;73;21466;-69
2021/01/12 00:34:00;;;;;;;15.23;6.35;;;-0.60;99.90;;;;;;1920710;74;21467;-70
2021/01/12 00:36:27;;;;;;;11.53;6.33;;;-0.60;99.90;;;;;;1922604;75;21482;-70
2021/01/12 00:38:53;;;;;;;14.58;6.37;;;-0.70;99.90;;;;;;1922070;74;21070;-70
2021/01/12 00:41:19;;;;;;;13.83;6.53;;;-0.80;99.90;;;;;;1892087;74;21076;-70
2021/01/12 00:43:46;;;;;;;14.80;7.87;;;-0.80;99.90;;;;;;1904306;74;21157;-70
2021/01/12 00:46:12;;;;;;;11.50;5.97;;;-0.80;99.90;;;;;;1900593;74;21107;-70
2021/01/12 00:48:38;;;;;;;12.15;6.17;;;-0.90;99.90;;;;;;1903887;74;21092;-70
2021/01/12 00:51:04;;;;;;;8.85;5.37;;;-0.90;99.90;;;;;;1941895;74;21036;-71
2021/01/12 00:53:30;;;;;;;16.20;6.53;;;-0.80;99.90;;;;;;1939347;73;21605;-70
2021/01/12 00:55:56;;;;;;;10.38;6.12;;;-0.80;99.90;;;;;;1926834;73;21470;-70
2021/01/12 00:58:22;;;;;;;9.80;5.90;;;-0.80;99.90;;;;;;1920696;75;21479;-70
2021/01/12 01:00:48;;;;;;;9.50;6.05;;;-0.70;99.90;;;;;;1922187;74;21549;-71
2021/01/12 01:03:15;;;;;;;10.50;5.97;;;-0.80;99.90;;;;;;1914395;74;21141;-70
2021/01/12 01:05:41;;;;;;;12.33;5.97;;;-0.70;99.90;;;;;;1906250;74;21069;-70
2021/01/12 01:08:07;;;;;;;8.08;5.55;;;-0.80;99.90;;;;;;1896981;74;21133;-70
2021/01/12 01:10:33;;;;;;;11.75;6.00;;;-0.80;99.90;;;;;;1878771;76;21058;-70
2021/01/12 01:12:59;;;;;;;16.17;6.62;;;-0.70;99.90;;;;;;1883245;74;21032;-69
2021/01/12 01:15:25;;;;;;;10.28;5.83;;;-0.60;99.90;;;;;;1904849;74;21080;-70
2021/01/12 01:17:51;;;;;;;9.70;5.42;;;-0.50;99.90;;;;;;1899151;74;21107;-70
2021/01/12 01:20:17;;;;;;;14.07;5.95;;;-0.60;99.90;;;;;;1906385;75;21061;-70
2021/01/12 01:22:44;;;;;;;10.00;5.42;;;-0.40;99.90;;;;;;1906394;75;21032;-70
2021/01/12 01:25:10;;;;;;;10.58;5.58;;;-0.30;99.90;;;;;;1903014;74;21140;-70
2021/01/12 01:27:36;;;;;;;10.18;6.30;;;-0.20;99.90;;;;;;1901657;74;21141;-70
2021/01/12 01:30:02;;;;;;;9.45;5.08;;;-0.10;99.90;;;;;;1906825;74;21174;-70
2021/01/12 01:32:28;;;;;;;11.97;5.70;;;-0.10;99.90;;;;;;1902008;74;21040;-70
2021/01/12 01:34:54;;;;;;;8.20;4.97;;;-0.10;99.90;;;;;;1901677;74;21073;-70
2021/01/12 01:37:20;;;;;;;15.48;5.42;;;0.00;99.90;;;;;;1890727;74;21067;-70
2021/01/12 01:39:46;;;;;;;14.45;5.42;;;0.00;99.90;;;;;;1886476;74;21085;-70
2021/01/12 01:42:12;;;;;;;12.45;6.08;;;0.00;99.90;;;;;;1885625;74;21553;-70
2021/01/12 01:44:39;;;;;;;15.48;6.53;;;0.00;99.90;;;;;;1890174;74;21425;-70
2021/01/12 01:47:05;;;;;;;10.32;5.03;;;0.10;99.90;;;;;;1892258;74;21487;-70
2021/01/12 01:49:31;;;;;;;9.28;4.95;;;0.20;99.90;;;;;;1906502;74;21192;-70
2021/01/12 01:51:57;;;;;;;8.28;4.55;;;0.30;99.90;;;;;;1939948;73;21058;-70
2021/01/12 01:54:23;;;;;;;9.90;5.45;;;0.30;99.90;;;;;;1943203;73;21062;-70
2021/01/12 01:56:49;;;;;;;7.35;4.47;;;0.30;99.90;;;;;;1917515;74;21079;-70
2021/01/12 01:59:15;;;;;;;9.10;5.25;;;0.40;99.90;;;;;;1933272;73;21129;-70
2021/01/12 02:01:42;;;;;;;9.48;5.42;;;0.40;99.90;;;;;;1941608;73;21225;-69
2021/01/12 02:04:08;;;;;;;9.25;4.70;;;0.40;99.90;;;;;;1941974;73;21071;-70
2021/01/12 02:06:34;;;;;;;6.22;3.60;;;0.50;99.90;;;;;;1948270;73;21452;-70
2021/01/12 02:09:00;;;;;;;5.95;4.22;;;0.60;99.90;;;;;;1935136;73;21442;-70
2021/01/12 02:11:26;;;;;;;9.18;4.50;;;0.70;99.90;;;;;;1959630;73;21552;-70
2021/01/12 02:13:52;;;;;;;7.62;3.85;;;0.70;99.90;;;;;;1947980;73;21075;-70
2021/01/12 02:16:18;;;;;;;7.08;4.08;;;0.70;99.90;;;;;;1942395;73;21140;-70
2021/01/12 02:18:44;;;;;;;6.60;4.12;;;0.70;99.90;;;;;;1943738;73;21067;-70
2021/01/12 02:21:10;;;;;;;9.18;4.33;;;0.70;99.90;;;;;;1949828;73;21128;-70
2021/01/12 02:23:37;;;;;;;7.35;4.50;;;0.70;99.90;;;;;;1952933;73;21032;-70
2021/01/12 02:26:03;;;;;;;7.80;4.42;;;0.70;99.90;;;;;;1941954;74;21128;-70
2021/01/12 02:28:29;;;;;;;7.45;5.00;;;0.70;99.90;;;;;;1944645;73;21070;-70
2021/01/12 02:30:55;;;;;;;7.85;4.15;;;0.70;99.90;;;;;;1931693;73;21071;-70
2021/01/12 02:33:21;;;;;;;5.78;3.95;;;0.70;99.90;;;;;;1938007;73;21063;-70
2021/01/12 02:35:47;;;;;;;8.63;4.30;;;0.80;99.90;;;;;;1940038;73;21067;-70
2021/01/12 02:38:14;;;;;;;8.38;4.15;;;0.80;99.90;;;;;;1933969;73;21075;-70
2021/01/12 02:40:40;;;;;;;6.87;3.35;;;0.90;99.90;;;;;;1941852;73;21059;-70
2021/01/12 02:43:06;;;;;;;4.78;3.47;;;0.90;99.90;;;;;;1938754;73;21095;-70
2021/01/12 02:45:32;;;;;;;8.83;4.03;;;0.90;99.90;;;;;;1921644;74;21143;-71
2021/01/12 02:47:58;;;;;;;7.42;3.67;;;0.90;99.90;;;;;;1910411;74;21071;-70
2021/01/12 02:50:24;;;;;;;9.08;4.17;;;1.00;99.90;;;;;;1903736;74;21072;-70
2021/01/12 02:52:50;;;;;;;5.15;3.35;;;1.00;99.90;;;;;;1891367;74;21136;-71
2021/01/12 02:55:17;;;;;;;5.65;3.58;;;1.00;99.90;;;;;;1903354;74;21084;-70
2021/01/12 02:57:43;;;;;;;5.33;2.92;;;1.10;99.90;;;;;;1878861;73;21079;-70
2021/01/12 03:00:09;;;;;;;4.80;3.08;;;1.10;99.90;;;;;;1903816;74;21166;-70
2021/01/12 03:02:35;;;;;;;5.15;3.05;;;1.10;99.90;;;;;;1906343;74;21431;-70
2021/01/12 03:05:01;;;;;;;5.67;3.10;;;1.10;99.90;;;;;;1896423;74;21558;-71
2021/01/12 03:07:27;;;;;;;6.87;3.75;;;1.20;99.90;;;;;;1901622;74;21487;-71
2021/01/12 03:09:53;;;;;;;4.85;2.87;;;1.20;99.90;;;;;;1903845;74;21080;-71
2021/01/12 03:12:19;;;;;;;4.30;2.67;;;1.30;99.90;;;;;;1890460;74;21132;-71
2021/01/12 03:14:45;;;;;;;4.05;2.92;;;1.30;99.90;;;;;;1906577;74;21068;-71
2021/01/12 03:17:13;;;;;;;3.33;2.80;;;1.30;99.90;;;;;;1891950;73;21218;-70
2021/01/12 03:19:39;;;;;;;7.25;3.08;;;1.30;99.90;;;;;;1906982;74;21575;-71
2021/01/12 03:22:05;;;;;;;5.60;3.30;;;1.30;99.90;;;;;;1884553;74;21040;-71
2021/01/12 03:24:31;;;;;;;4.17;2.58;;;1.40;99.90;;;;;;1896466;74;21107;-70
2021/01/12 03:26:57;;;;;;;3.67;2.70;;;1.40;99.90;;;;;;1938137;73;21079;-70
2021/01/12 03:29:23;;;;;;;3.20;2.35;;;1.40;99.90;;;;;;1941674;74;21067;-71
2021/01/12 03:31:50;;;;;;;3.75;2.47;;;1.40;99.90;;;;;;1941726;73;21238;-71
2021/01/12 03:34:16;;;;;;;5.25;3.00;;;1.40;99.90;;;;;;1936437;73;21144;-71
2021/01/12 03:36:42;;;;;;;10.18;2.12;;;1.40;99.90;;;;;;1918860;74;21133;-71
2021/01/12 03:39:08;;;;;;;4.37;2.60;;;1.40;99.90;;;;;;1936909;73;21567;-71
2021/01/12 03:41:34;;;;;;;3.42;2.67;;;1.40;99.90;;;;;;1941724;74;21472;-71
2021/01/12 03:44:00;;;;;;;3.10;2.30;;;1.40;99.90;;;;;;1941703;74;21627;-71
2021/01/12 03:46:26;;;;;;;3.25;1.98;;;1.40;99.90;;;;;;1941655;73;21097;-71
2021/01/12 03:48:52;;;;;;;3.77;2.45;;;1.50;99.90;;;;;;1941675;73;21174;-71
2021/01/12 03:51:19;;;;;;;6.75;2.58;;;1.50;99.90;;;;;;1937598;73;21100;-71
2021/01/12 03:53:45;;;;;;;2.85;2.08;;;1.50;99.90;;;;;;1937885;73;21104;-71
2021/01/12 03:56:15;;;;;;;2.37;2.12;;;1.50;99.90;;;;;;1940990;73;21067;-71
2021/01/12 03:58:39;;;;;;;5.25;2.50;;;1.50;99.90;;;;;;1939131;73;21173;-71
2021/01/12 04:01:05;;;;;;;2.95;2.17;;;1.50;99.90;;;;;;1957015;73;21040;-71
2021/01/12 04:03:31;;;;;;;2.67;2.00;;;1.50;99.90;;;;;;1919415;74;21131;-70
2021/01/12 04:05:57;;;;;;;4.08;2.37;;;1.50;99.90;;;;;;1922683;74;21151;-70
2021/01/12 04:08:23;;;;;;;2.50;2.30;;;1.50;99.90;;;;;;1922720;75;21042;-70
2021/01/12 04:10:49;;;;;;;4.75;2.27;;;1.50;99.90;;;;;;1919719;74;21071;-70
2021/01/12 04:13:15;;;;;;;2.50;1.95;;;1.60;99.90;;;;;;1920898;74;21180;-71
2021/01/12 04:15:41;;;;;;;2.37;1.98;;;1.60;99.90;;;;;;1925380;74;21062;-70
2021/01/12 04:18:08;;;;;;;4.53;2.00;;;1.50;99.90;;;;;;1945345;73;21035;-70
2021/01/12 04:20:34;;;;;;;4.00;2.10;;;1.50;99.90;;;;;;1943235;73;21059;-70
2021/01/12 04:23:00;;;;;;;3.17;2.10;;;1.60;99.90;;;;;;1941621;74;21092;-71
2021/01/12 04:25:26;;;;;;;9.05;2.58;;;1.70;99.90;;;;;;1949656;73;21556;-71
2021/01/12 04:27:52;;;;;;;2.12;1.92;;;1.60;99.90;;;;;;1946667;73;21584;-70
2021/01/12 04:30:18;;;;;;;3.62;2.62;;;1.60;99.90;;;;;;1946788;73;21564;-70
2021/01/12 04:32:44;;;;;;;3.37;2.02;;;1.70;99.90;;;;;;1931669;73;21070;-70
2021/01/12 04:35:10;;;;;;;4.00;2.30;;;1.70;99.90;;;;;;1940961;73;21067;-71
2021/01/12 04:37:37;;;;;;;3.52;2.40;;;1.70;99.90;;;;;;1943281;73;21028;-71
2021/01/12 04:40:03;;;;;;;4.40;2.27;;;1.70;99.90;;;;;;1938193;73;21035;-71
2021/01/12 04:42:32;;;;;;;4.05;2.27;;;1.80;99.90;;;;;;1922419;75;21044;-71
2021/01/12 04:44:57;;;;;;;1.90;1.72;;;1.80;99.90;;;;;;1922312;74;21107;-71
2021/01/12 04:47:23;;;;;;;2.92;2.50;;;1.80;99.90;;;;;;1922489;74;21091;-71
2021/01/12 04:49:49;;;;;;;3.87;2.37;;;1.80;99.90;;;;;;1908147;75;21063;-71
2021/01/12 04:52:15;;;;;;;6.55;2.58;;;1.90;99.90;;;;;;1906522;74;21076;-71
2021/01/12 04:54:41;;;;;;;3.45;2.50;;;1.80;99.90;;;;;;1896988;74;21064;-71
2021/01/12 04:57:08;;;;;;;3.42;2.42;;;1.90;99.90;;;;;;1896898;74;21086;-71
2021/01/12 04:59:35;;;;;;;5.08;2.17;;;1.90;99.90;;;;;;1941792;73;21073;-71
2021/01/12 05:02:01;;;;;;;4.10;2.58;;;1.90;99.90;;;;;;1939650;73;21061;-71
2021/01/12 05:04:27;;;;;;;3.35;2.33;;;1.90;99.90;;;;;;1935797;73;21066;-71
2021/01/12 05:06:53;;;;;;;4.70;2.30;;;1.90;99.90;;;;;;1919150;73;21110;-71
2021/01/12 05:09:20;;;;;;;3.50;2.20;;;1.90;99.90;;;;;;1920615;75;21078;-71
2021/01/12 05:11:46;;;;;;;3.52;1.82;;;1.90;99.90;;;;;;1918711;74;21078;-70
2021/01/12 05:14:12;;;;;;;3.95;2.22;;;2.00;99.90;;;;;;1927413;73;21526;-71
2021/01/12 05:16:38;;;;;;;5.62;1.98;;;2.00;99.90;;;;;;1941766;73;21503;-71
2021/01/12 05:19:04;;;;;;;6.30;2.62;;;1.90;99.90;;;;;;1937441;73;21550;-71
2021/01/12 05:21:31;;;;;;;5.33;2.45;;;1.90;99.90;;;;;;1941727;73;21128;-71
2021/01/12 05:23:57;;;;;;;4.05;2.98;;;1.90;99.90;;;;;;1941536;73;21108;-72
2021/01/12 05:26:23;;;;;;;3.33;2.22;;;1.90;99.90;;;;;;1941040;73;21068;-70
2021/01/12 05:28:50;;;;;;;3.05;2.20;;;1.90;99.90;;;;;;1925356;73;21066;-70
2021/01/12 05:31:16;;;;;;;4.62;2.70;;;1.90;99.90;;;;;;1935022;73;21058;-72
2021/01/12 05:33:42;;;;;;;5.70;2.33;;;1.90;99.90;;;;;;1921841;74;21113;-71
2021/01/12 05:36:08;;;;;;;4.40;2.47;;;1.90;99.90;;;;;;1922689;75;21040;-70
2021/01/12 05:38:34;;;;;;;3.70;2.60;;;1.80;99.90;;;;;;1921721;74;21149;-71
2021/01/12 05:41:00;;;;;;;5.40;2.75;;;1.70;99.90;;;;;;1919441;74;21056;-71
2021/01/12 05:43:26;;;;;;;3.20;2.20;;;1.80;99.90;;;;;;1907084;74;21443;-71
2021/01/12 05:45:52;;;;;;;7.42;2.67;;;1.70;99.90;;;;;;1886781;74;21547;-71
2021/01/12 05:48:19;;;;;;;2.87;2.25;;;1.80;99.90;;;;;;1880358;74;21589;-70
2021/01/12 05:50:45;;;;;;;6.03;3.02;;;1.80;99.90;;;;;;1902525;75;21068;-70
2021/01/12 05:53:11;;;;;;;3.05;2.45;;;1.80;99.90;;;;;;1900918;74;21067;-70
2021/01/12 05:55:37;;;;;;;4.03;2.80;;;1.70;99.90;;;;;;1895288;74;21147;-71
2021/01/12 05:58:03;;;;;;;7.60;3.00;;;1.80;99.90;;;;;;1879090;74;21138;-71
2021/01/12 06:00:29;;;;;;;4.03;2.35;;;1.80;99.90;;;;;;1897027;74;21065;-70
2021/01/12 06:02:55;;;;;;;4.50;2.62;;;1.70;99.90;;;;;;1901286;74;21036;-70
2021/01/12 06:05:21;;;;;;;7.12;3.42;;;1.80;99.90;;;;;;1903161;74;21550;-72
2021/01/12 06:07:48;;;;;;;6.55;2.72;;;1.70;99.90;;;;;;1896059;74;21485;-71
2021/01/12 06:10:14;;;;;;;3.00;2.25;;;1.70;99.90;;;;;;1906607;74;21516;-71
2021/01/12 06:12:40;;;;;;;4.42;2.92;;;1.80;99.90;;;;;;1892532;74;21063;-71
2021/01/12 06:15:06;;;;;;;4.60;2.60;;;1.80;99.90;;;;;;1906496;75;21057;-71
2021/01/12 06:17:37;;;;;;;5.22;2.83;;;1.90;99.90;;;;;;1906483;75;21114;-71
2021/01/12 06:20:00;;;;;;;4.20;2.45;;;2.00;99.90;;;;;;1899853;74;21587;-71
2021/01/12 06:22:27;;;;;;;3.83;2.60;;;2.00;99.90;;;;;;1887058;73;21448;-71
2021/01/12 06:24:53;;;;;;;5.15;3.12;;;2.10;99.90;;;;;;1905996;74;21171;-71
2021/01/12 06:27:19;;;;;;;3.05;2.50;;;2.10;99.90;;;;;;1887757;76;21124;-71
2021/01/12 06:29:45;;;;;;;5.17;2.65;;;2.10;99.90;;;;;;1903389;74;21081;-71
2021/01/12 06:32:11;;;;;;;4.37;2.25;;;2.20;99.90;;;;;;1940601;73;21141;-71
2021/01/12 06:34:37;;;;;;;3.90;2.33;;;2.20;99.90;;;;;;1943205;73;21552;-70
2021/01/12 06:37:03;;;;;;;2.87;1.95;;;2.30;99.90;;;;;;1950090;73;21518;-71
2021/01/12 06:39:30;;;;;;;2.37;2.08;;;2.30;99.90;;;;;;1917120;74;21498;-71
2021/01/12 06:41:56;;;;;;;2.75;2.08;;;2.30;99.90;;;;;;1919724;74;21044;-70
2021/01/12 06:44:22;;;;;;;4.03;2.52;;;2.30;99.90;;;;;;1927987;74;21035;-71
2021/01/12 06:46:48;;;;;;;2.85;2.10;;;2.30;99.90;;;;;;1941778;73;21040;-71
2021/01/12 06:49:14;;;;;;;3.58;2.45;;;2.30;99.90;;;;;;1947091;73;21082;-73
2021/01/12 06:51:40;;;;;;;3.30;2.30;;;2.40;99.90;;;;;;1932394;73;21062;-73
2021/01/12 06:54:06;;;;;;;3.15;2.20;;;2.40;99.90;;;;;;1920579;74;21238;-76
2021/01/12 06:56:33;;;;;;;2.98;2.15;;;2.50;99.90;;;;;;1943258;74;21370;-76
2021/01/12 06:58:59;;;;;;;4.30;2.33;;;2.50;99.90;;;;;;1941754;73;21104;-76
2021/01/12 07:01:25;;;;;;;2.40;1.75;;;2.50;99.90;;;;;;1937608;73;21054;-73
2021/01/12 07:03:51;;;;;;;2.75;2.17;;;2.70;99.90;;;;;;1940641;73;21136;-75
2021/01/12 07:06:18;;;;;;;3.75;2.33;;;2.60;99.90;;;;;;1946473;73;21124;-75
2021/01/12 07:08:44;;;;;;;2.50;2.00;;;2.70;99.90;;;;;;1937890;73;21043;-73
2021/01/12 07:11:10;;;;;;;2.45;1.75;;;2.70;99.90;;;;;;1919498;74;21066;-74
2021/01/12 07:13:36;;;;;;;4.08;1.90;;;2.70;99.90;;;;;;1921782;74;21087;-74
2021/01/12 07:16:02;;;;;;;1.90;1.72;;;2.70;99.90;;;;;;1921004;74;21086;-74
2021/01/12 07:18:29;;;;;;;1.85;1.42;;;2.80;99.90;;;;;;1919974;74;21133;-74
2021/01/12 07:20:55;;;;;;;2.90;1.62;;;2.80;99.90;;;;;;1927697;73;21062;-74
2021/01/12 07:23:21;;;;;;;4.17;1.80;;;2.80;99.90;;;;;;1921411;74;21140;-73
2021/01/12 07:25:47;;;;;;;2.75;1.98;;;2.80;99.90;;;;;;1920576;74;21074;-74
2021/01/12 07:28:13;;;;;;;2.12;1.62;;;2.80;99.90;;;;;;1919379;73;21175;-74
2021/01/12 07:30:39;;;;;;;2.47;1.55;;;2.90;99.90;;;;;;1941726;74;21080;-73
2021/01/12 07:33:05;;;;;;;6.87;1.98;;;2.90;99.90;;;;;;1936051;73;21063;-71
2021/01/12 07:35:31;;;;;;;3.05;2.10;;;2.90;99.90;;;;;;1954335;73;21037;-74
2021/01/12 07:37:58;;;;;;;2.05;1.45;;;2.90;99.90;;;;;;1920933;75;21148;-74
2021/01/12 07:40:24;;;;;;;1.90;1.70;;;2.90;99.90;;;;;;1920732;74;21124;-73
2021/01/12 07:42:50;;;;;;;3.95;2.15;;;2.90;99.90;;;;;;1922655;74;21121;-74
2021/01/12 07:45:16;;;;;;;2.02;1.65;;;3.00;99.90;;;;;;1921063;74;21079;-74
2021/01/12 07:47:42;;;;;;;2.83;1.92;;;3.00;99.90;;;;;;1921630;74;21075;-74
2021/01/12 07:50:08;;;;;;;3.85;1.80;;;3.00;99.90;;;;;;1922699;75;21528;-75
2021/01/12 07:52:34;;;;;;;2.65;1.70;;;3.00;99.90;;;;;;1919854;74;21463;-73
2021/01/12 07:55:00;;;;;;;1.55;1.37;;;3.10;99.90;;;;;;1931943;73;21628;-74
2021/01/12 07:57:27;;;;;;;2.70;1.42;;;3.00;99.90;;;;;;1941147;73;21039;-74
2021/01/12 07:59:53;;;;;;;1.50;1.40;;;3.10;99.90;;;;;;1945444;73;21059;-73
2021/01/12 08:02:19;;;;;;;1.65;1.32;;;3.10;99.90;;;;;;1941537;74;21099;-74
2021/01/12 08:04:45;;;;;;;3.30;1.98;;;3.10;99.90;;;;;;1939549;73;21063;-73
2021/01/12 08:07:11;;;;;;;2.02;1.32;;;3.10;99.90;;;;;;1918715;74;21136;-74
2021/01/12 08:09:37;;;;;;;3.55;2.58;;;3.10;99.90;;;;;;1937065;73;21149;-74
2021/01/12 08:12:03;;;;;;;2.87;1.82;;;3.10;99.90;;;;;;1919667;74;21199;-73
2021/01/12 08:14:29;;;;;;;4.00;1.80;;;3.10;99.90;;;;;;1921777;74;21553;-73
2021/01/12 08:16:56;;;;;;;2.50;1.87;;;3.10;99.90;;;;;;1921284;74;21506;-74
2021/01/12 08:19:22;;;;;;;3.08;2.08;;;3.10;99.90;;;;;;1897709;74;21040;-75
2021/01/12 08:21:48;;;;;;;3.20;2.25;;;3.20;99.90;;;;;;1906406;75;21061;-74
2021/01/12 08:24:14;;;;;;;2.00;1.60;;;3.30;99.90;;;;;;1897236;74;21140;-74
2021/01/12 08:26:40;;;;;;;2.98;1.35;;;3.30;99.90;;;;;;1886058;74;21033;-72
2021/01/12 08:29:06;;;;;;;3.12;2.00;;;3.30;99.90;;;;;;1933213;73;21062;-72
2021/01/12 08:31:32;;;;;;;4.17;1.70;;;3.30;99.90;;;;;;1920965;74;21128;-72
2021/01/12 08:33:58;;;;;;;7.97;2.17;;;3.30;99.90;;;;;;1919020;74;21145;-80
2021/01/12 08:36:26;;;;;;;2.62;1.87;;;3.30;99.90;;;;;;1918892;73;21028;-76
2021/01/12 08:38:55;;;;;;;8.65;1.92;;;3.30;99.90;;;;;;1903088;74;21146;-75
2021/01/12 08:41:21;;;;;;;2.47;1.75;;;3.30;99.90;;;;;;1941021;73;21140;-75
2021/01/12 08:43:47;;;;;;;5.40;1.52;;;3.30;99.90;;;;;;1937122;73;21040;-74
2021/01/12 08:46:13;;;;;;;3.25;2.08;;;3.30;99.90;;;;;;1919292;75;21102;-75
2021/01/12 08:48:40;;;;;;;4.28;2.05;;;3.30;99.90;;;;;;1921024;75;21046;-73
2021/01/12 08:51:06;;;;;;;3.85;1.80;;;3.30;99.90;;;;;;1919369;75;21035;-75
2021/01/12 08:53:32;;;;;;;1.95;1.62;;;3.30;99.90;;;;;;1936387;73;21062;-74
2021/01/12 08:55:58;;;;;;;5.72;2.00;;;3.30;99.90;;;;;;1921745;75;21091;-73
2021/01/12 08:58:24;;;;;;;5.33;1.82;;;3.30;99.90;;;;;;1922480;74;21048;-73
2021/01/12 09:00:50;;;;;;;2.85;2.27;;;3.30;99.90;;;;;;1922547;74;21078;-75
2021/01/12 09:03:16;;;;;;;3.52;2.10;;;3.20;99.90;;;;;;1919156;74;21067;-74
2021/01/12 09:05:42;;;;;;;2.27;1.45;;;3.30;99.90;;;;;;1927331;74;21136;-73
2021/01/12 09:08:09;;;;;;;3.60;2.00;;;3.30;99.90;;;;;;1941615;73;21535;-75
2021/01/12 09:10:35;;;;;;;2.22;1.80;;;3.40;99.90;;;;;;1919403;74;21083;-75
2021/01/12 09:13:01;;;;;;;2.12;1.80;;;3.40;99.90;;;;;;1942349;73;21058;-75
2021/01/12 09:15:27;;;;;;;3.83;1.90;;;3.30;99.90;;;;;;1937887;73;21091;-74
2021/01/12 09:17:53;;;;;;;7.72;2.00;;;3.30;99.90;;;;;;1940994;73;21372;-75
2021/01/12 09:20:19;;;;;;;5.08;2.47;;;3.40;99.90;;;;;;1940146;73;21076;-74
2021/01/12 09:22:45;;;;;;;3.98;2.12;;;3.30;99.90;;;;;;1950324;73;21059;-73
2021/01/12 09:25:11;;;;;;;3.08;1.85;;;3.30;99.90;;;;;;1927909;73;21133;-75
2021/01/12 09:27:38;;;;;;;6.17;1.65;;;3.40;99.90;;;;;;1941637;74;21092;-75
2021/01/12 09:30:04;;;;;;;2.20;1.75;;;3.40;99.90;;;;;;1937580;73;21163;-75
2021/01/12 09:32:30;;;;;;;3.30;1.80;;;3.40;99.90;;;;;;1900069;74;21524;-73
2021/01/12 09:34:56;;;;;;;5.10;3.15;;;3.30;99.90;;;;;;1896850;74;21060;-73
2021/01/12 09:37:22;;;;;;;2.67;2.02;;;3.40;99.90;;;;;;1904731;74;21202;-75
2021/01/12 09:39:48;;;;;;;3.45;1.90;;;3.40;99.90;;;;;;1944652;73;21070;-74
2021/01/12 09:42:14;;;;;;;1.67;1.40;;;3.40;99.90;;;;;;1945661;73;21040;-75
2021/01/12 09:44:40;;;;;;;2.55;1.37;;;3.40;99.90;;;;;;1936478;73;21079;-75
2021/01/12 09:47:07;;;;;;;3.42;2.05;;;3.40;99.90;;;;;;1929897;73;21062;-72
2021/01/12 09:49:33;;;;;;;2.35;1.62;;;3.40;99.90;;;;;;1931857;73;21086;-77
2021/01/12 09:51:59;;;;;;;4.20;2.20;;;3.40;99.90;;;;;;1921843;74;21083;-74
2021/01/12 09:54:25;;;;;;;1.90;1.50;;;3.40;99.90;;;;;;1920737;74;21470;-73
2021/01/12 09:56:51;;;;;;;2.25;1.95;;;3.40;99.90;;;;;;1931607;73;21582;-75
2021/01/12 09:59:17;;;;;;;2.52;2.00;;;3.50;99.90;;;;;;1918729;75;21551;-73
2021/01/12 10:01:43;;;;;;;1.82;1.47;;;3.40;99.90;;;;;;1921510;74;21132;-73
2021/01/12 10:04:09;;;;;;;3.05;1.60;;;3.40;99.90;;;;;;1905212;74;21071;-72
2021/01/12 10:06:36;;;;;;;9.90;1.80;;;3.40;99.90;;;;;;1899415;75;21131;-79
2021/01/12 10:09:02;;;;;;;3.58;1.40;;;3.40;99.90;;;;;;1906188;74;21192;-73
2021/01/12 10:11:28;;;;;;;1.95;1.70;;;3.40;99.90;;;;;;1906331;75;21065;-72
2021/01/12 10:13:54;;;;;;;2.90;1.60;;;3.40;99.90;;;;;;1888377;74;21114;-71
2021/01/12 10:16:20;;;;;;;1.70;1.32;;;3.30;99.90;;;;;;1897376;74;21072;-73
2021/01/12 10:18:46;;;;;;;5.15;1.77;;;3.30;99.90;;;;;;1886429;73;21142;-74
2021/01/12 10:21:12;;;;;;;2.80;1.52;;;3.30;99.90;;;;;;1906327;75;21073;-73
2021/01/12 10:23:39;;;;;;;1.82;1.55;;;3.30;99.90;;;;;;1906436;74;21140;-73
2021/01/12 10:26:05;;;;;;;2.80;2.15;;;3.20;99.90;;;;;;1902881;74;21085;-73
2021/01/12 10:28:31;;;;;;;2.50;1.70;;;3.10;99.90;;;;;;1896429;73;21542;-74
2021/01/12 10:30:57;;;;;;;1.82;1.60;;;3.00;99.90;;;;;;1906184;75;21402;-73
2021/01/12 10:33:23;;;;;;;6.60;3.22;;;3.00;99.90;;;;;;1906290;75;21495;-75
2021/01/12 10:35:49;;;;;;;3.05;2.30;;;2.90;99.90;;;;;;1906241;74;21134;-75
2021/01/12 10:38:15;;;;;;;5.12;2.42;;;2.90;99.90;;;;;;1901712;74;21059;-75
2021/01/12 10:40:41;;;;;;;2.35;2.00;;;2.90;99.90;;;;;;1906422;75;21147;-76
2021/01/12 10:43:08;;;;;;;4.28;1.90;;;2.80;99.90;;;;;;1906401;75;21056;-76
2021/01/12 10:45:34;;;;;;;1.82;1.62;;;2.80;99.90;;;;;;1906361;74;21191;-78
2021/01/12 10:48:00;;;;;;;2.90;2.08;;;2.80;99.90;;;;;;1888047;74;21083;-78
2021/01/12 10:50:26;;;;;;;3.92;1.75;;;2.80;99.90;;;;;;1895482;74;21088;-77
2021/01/12 10:52:52;;;;;;;4.42;2.20;;;2.70;99.90;;;;;;1897490;74;21056;-76
2021/01/12 10:55:19;;;;;;;12.18;3.00;;;2.80;99.90;;;;;;1895812;74;21081;-78
2021/01/12 10:57:45;;;;;;;4.85;2.17;;;2.70;99.90;;;;;;1902064;74;21075;-76
2021/01/12 11:00:11;;;;;;;3.85;1.90;;;2.70;99.90;;;;;;1910641;74;21053;-75
2021/01/12 11:02:37;;;;;;;2.47;2.00;;;2.70;99.90;;;;;;1886574;74;21428;-76
2021/01/12 11:05:03;;;;;;;7.78;2.15;;;2.70;99.90;;;;;;1906388;75;21555;-78
2021/01/12 11:07:31;;;;;;;6.67;2.72;;;2.70;99.90;;;;;;1906388;75;21059;-76
2021/01/12 11:09:57;;;;;;;2.72;1.92;;;2.70;99.90;;;;;;1906977;74;21092;-77
2021/01/12 11:12:24;;;;;;;3.25;1.80;;;2.70;99.90;;;;;;1882319;74;21072;-76
2021/01/12 11:14:53;;;;;;;3.20;2.05;;;2.70;99.90;;;;;;1895165;75;21554;-77
2021/01/12 11:17:19;;;;;;;2.65;1.82;;;2.70;99.90;;;;;;1906378;74;21083;-76
2021/01/12 11:19:45;;;;;;;2.08;1.80;;;2.70;99.90;;;;;;1895383;74;21092;-77
2021/01/12 11:22:12;;;;;;;2.95;1.85;;;2.70;99.90;;;;;;1889089;74;21063;-78
2021/01/12 11:24:38;;;;;;;2.30;1.90;;;2.70;99.90;;;;;;1902072;74;21144;-77
2021/01/12 11:27:04;;;;;;;3.17;2.10;;;2.60;99.90;;;;;;1900572;74;21075;-77
2021/01/12 11:29:31;;;;;;;2.20;1.80;;;2.70;99.90;;;;;;1902480;74;21158;-74
2021/01/12 11:31:57;;;;;;;4.62;2.33;;;2.60;99.90;;;;;;1906557;75;21129;-76
2021/01/12 11:34:23;;;;;;;4.35;2.27;;;2.60;99.90;;;;;;1906418;74;21053;-74
2021/01/12 11:36:49;;;;;;;3.77;2.27;;;2.60;99.90;;;;;;1886774;73;21079;-74
2021/01/12 11:39:15;;;;;;;4.60;2.25;;;2.60;99.90;;;;;;1902958;74;21115;-74
2021/01/12 11:41:41;;;;;;;5.08;2.40;;;2.70;99.90;;;;;;1878816;74;21128;-74
2021/01/12 11:44:07;;;;;;;5.83;2.20;;;2.70;99.90;;;;;;1899317;74;21072;-74
2021/01/12 11:46:34;;;;;;;3.52;2.25;;;2.60;99.90;;;;;;1898654;74;21079;-75
2021/01/12 11:49:00;;;;;;;2.85;1.80;;;2.70;99.90;;;;;;1898601;75;21069;-75
2021/01/12 11:51:26;;;;;;;4.40;2.27;;;2.70;99.90;;;;;;1910503;74;21071;-75
2021/01/12 11:53:53;;;;;;;3.15;2.30;;;2.70;99.90;;;;;;1906221;74;21077;-75
2021/01/12 11:56:19;;;;;;;5.10;2.47;;;2.70;99.90;;;;;;1882755;74;21084;-74
2021/01/12 11:58:45;;;;;;;2.45;1.80;;;2.70;99.90;;;;;;1891412;74;21516;-74
2021/01/12 12:01:11;;;;;;;3.60;2.40;;;2.70;99.90;;;;;;1881314;73;21559;-74
2021/01/12 12:03:39;;;;;;;1.60;1.35;;;2.80;99.90;;;;;;1886182;75;21574;-74
2021/01/12 12:06:05;;;;;;;2.10;1.80;;;2.80;99.90;;;;;;1906353;74;21188;-76
2021/01/12 12:08:31;;;;;;;2.75;1.55;;;2.70;99.90;;;;;;1906483;75;21193;-75
2021/01/12 12:10:57;;;;;;;3.10;1.30;;;2.70;99.90;;;;;;1891677;74;21558;-75
2021/01/12 12:13:24;;;;;;;1.60;1.50;;;2.90;99.90;;;;;;1901632;75;21481;-75
2021/01/12 12:15:50;;;;;;;7.87;1.90;;;2.90;99.90;;;;;;1890770;74;21456;-74
2021/01/12 12:18:16;;;;;;;1.45;1.30;;;2.90;99.90;;;;;;1891216;74;21053;-75
2021/01/12 12:20:42;;;;;;;1.57;1.30;;;2.80;99.90;;;;;;1914579;74;21071;-74
2021/01/12 12:23:08;;;;;;;6.58;2.12;;;2.90;99.90;;;;;;1907247;74;21142;-73
2021/01/12 12:25:34;;;;;;;1.43;1.33;;;2.90;99.90;;;;;;1941739;74;21055;-74
2021/01/12 12:28:00;;;;;;;3.20;1.57;;;2.90;99.90;;;;;;1941416;73;21124;-74
2021/01/12 12:30:26;;;;;;;4.03;1.40;;;2.90;99.90;;;;;;1933978;73;21074;-75
2021/01/12 12:32:52;;;;;;;1.15;1.10;;;2.90;99.90;;;;;;1921720;75;21170;-76
2021/01/12 12:35:19;;;;;;;1.22;1.10;;;2.90;99.90;;;;;;1920849;74;21051;-74
2021/01/12 12:37:48;;;;;;;1.15;1.05;;;3.00;99.90;;;;;;1893562;74;21542;-75
2021/01/12 12:40:14;;;;;;;1.42;1.00;;;3.10;99.90;;;;;;1905969;74;21493;-74
2021/01/12 12:42:40;;;;;;;1.05;0.95;;;3.10;99.90;;;;;;1906381;75;21040;-76
2021/01/12 12:45:06;;;;;;;2.02;0.88;;;3.10;99.90;;;;;;1901649;74;21080;-73
2021/01/12 12:47:33;;;;;;;1.35;1.25;;;3.00;99.90;;;;;;1900869;74;21137;-73
2021/01/12 12:49:59;;;;;;;1.47;1.25;;;3.00;99.90;;;;;;1906648;74;21072;-74